METAR Data
IDs: Format: Raw Decoded Include TAF

Data at: 0524 UTC 24 Sep 2020

KSLC 240454Z 13007KT 10SM FEW230 22/02 A3009 RMK AO2 SLP138 FU ALFT T02170022

KSLC 240302Z 2403/2506 15007KT P6SM BKN250
  FM240500 15007KT P6SM SCT250
  FM241500 17012G20KT P6SM FEW250
  FM242000 32010KT P6SM FEW250